KMIASKRG

Guest
Details From KMIA - Miami Intl
To SKRG - JOSE MARIA CORDOVA
Flight Number -
Tags generated
Created
Modified
Stats Distance 1,221 nm / 2,261 km
Max Altitude 35,000 ft / 10,668 m
Waypoints 11
Social Downloads 2
Likes 0
Share VATSIM

Download

Looking for another format? Having issues loading an existing format? Contact us
Advertisement - Login to hide

Notes

Basic altitude profile: - Ascent Rate: 2500ft/min - Ascent Speed: 250kts - Cruise Altitude: 35000ft - Cruise Speed: 420kts - Descent Rate: 1500ft/min - Descent Speed: 250kts Options: - Use NATs: yes - Use PACOTS: yes - Use low airways: yes - Use high airways: yes

Route

KMIA ELLEE A509 URSUS A301 UCA G430 PUTUL UG430 BEREX G430 KILER UQ105 BUTAL SKRG

ID Type Via Altitude Latitude Longitude Leg Dist Tot Dist Heading (true) Name
O KMIA APT - 0 ft / 0 m 25.79617˚ -80.28974˚ - 0 nm - Miami Intl
ELLEE FIX - 22,800 ft / 6,949 m 24.88061˚ -79.69002˚ 63 nm 63 nm 149° / 150° -
URSUS FIX A509 (AWY-LO) 35,000 ft / 10,668 m 24.00005˚ -79.06980˚ 62 nm 126 nm 147° / 147° -
UCA DME A301 (AWY-LO) 35,000 ft / 10,668 m 22.01506˚ -78.81582˚ 120 nm 246 nm 173° / 173° CIEGO DE AVILA VOR-DME
PUTUL FIX G430 (AWY-LO) 35,000 ft / 10,668 m 19.97611˚ -78.29333˚ 125 nm 372 nm 166° / 167° -
SIA VOR UG430 (AWY-HI) 35,000 ft / 10,668 m 18.50106˚ -77.92411˚ 91 nm 463 nm 167° / 167° SANGSTER VOR-DME
BEREX FIX UG430 (AWY-HI) 35,000 ft / 10,668 m 16.34694˚ -77.27722˚ 134 nm 598 nm 164° / 164° -
KILER FIX G430 (AWY-LO) 35,000 ft / 10,668 m 15.00000˚ -76.88000˚ 84 nm 682 nm 164° / 164° -
EKATI FIX UQ105 (AWY-HI) 35,000 ft / 10,668 m 10.00000˚ -75.87722˚ 305 nm 988 nm 169° / 169° -
BUTAL FIX UQ105 (AWY-HI) 21,700 ft / 6,614 m 7.85361˚ -75.45722˚ 131 nm 1119 nm 169° / 169° -
O SKRG APT - 0 ft / 0 m 6.16453˚ -75.42312˚ 101 nm 1221 nm 179° / 179° JOSE MARIA CORDOVA

Altitude Profile

Advertisement - Login to hide

Weather


0- 5 10 15 20 25 30 35+ Temperature / ° C

Clouds and Precipitation
Forecast for 2018-04-19 12:00 UTC. Updated 2 hours ago

Ground ~20,000 ft ~40,000 ft Winds

KMIA

Details ICAO KMIA (MIA)
Name Miami Intl
Region United States
Timezone America/New_York (UTC-4.0)
Stats Elevation 8 ft / 2 m (AMSL)
Location 25.796167° -80.289742°
Runways 4
Magnetic Variation 6.675° W

METAR

KMIA 191253Z VRB04KT 10SM SCT030 SCT300 23/19 A3012 RMK AO2 SLP201 T02330189

Decode

TAF

KMIA 191124Z 1912/2018 VRB03KT P6SM FEW025 SCT250 FM191600 14009KT P6SM FEW025 FEW250 FM200200 VRB03KT P6SM FEW250 FM201500 13010KT P6SM SCT030

Decode

Departure Runways

ID Width Length Bearing (true) Bearing (mag) Surface Threshold Offset Overrun Length
08L 151 ft / 46 m 8,588 ft / 2,618 m 87.35° 94.02° Asphalt 0 ft / 0 m 1,001 ft / 305 m
08R 200 ft / 61 m 10,490 ft / 3,197 m 87.37° 94.04° Asphalt 0 ft / 0 m 1,001 ft / 305 m
09 151 ft / 46 m 12,981 ft / 3,957 m 87.36° 94.03° Asphalt 1,348 ft / 411 m 1,001 ft / 305 m
12 151 ft / 46 m 9,353 ft / 2,851 m 119.60° 126.27° Asphalt 0 ft / 0 m 1,001 ft / 305 m
26L 200 ft / 61 m 10,490 ft / 3,197 m 267.38° 274.05° Asphalt 0 ft / 0 m 1,001 ft / 305 m
26R 151 ft / 46 m 8,588 ft / 2,618 m 267.37° 274.04° Asphalt 0 ft / 0 m 1,001 ft / 305 m
27 151 ft / 46 m 12,981 ft / 3,957 m 267.38° 274.05° Asphalt 1,270 ft / 387 m 899 ft / 274 m
30 151 ft / 46 m 9,353 ft / 2,851 m 299.61° 306.28° Asphalt 938 ft / 286 m 427 ft / 130 m

SKRG

Details ICAO SKRG (MDE)
Name JOSE MARIA CORDOVA
Region Colombia
Timezone America/Bogota (UTC-5.0)
Stats Elevation 6,955 ft / 2,120 m (AMSL)
Location 6.164532° -75.423119°
Runways 1
Magnetic Variation 6.679° W

METAR

SKRG 191300Z 01003KT 9999 FEW007 SCT080 BKN200 16/14 A3033=? METAR SKPC 191300Z 01004KT 9999 BKN015 26/24 A2995

Decode

TAF

Not found

Destination Runways

ID Width Length Bearing (true) Bearing (mag) Surface Threshold Offset Overrun Length
18 148 ft / 45 m 11,547 ft / 3,520 m 179.62° 186.30° Asphalt 0 ft / 0 m 98 ft / 30 m
36 148 ft / 45 m 11,547 ft / 3,520 m 359.62° 6.30° Asphalt 0 ft / 0 m 98 ft / 30 m

Approach Navaids

Runway Type Ident Frequency Range Bearing (true) Bearing (mag) Slope Elevation
36 Localiser IMDE 110.90 MHz 18 nm / 33 km 359.62° 6.30° - 6,955 ft / 2,120 m (AMSL)
36 Glidescope IMDE 110.90 MHz 10 nm / 19 km 359.62° 6.30° 3.00° 6,955 ft / 2,120 m (AMSL)

Popular Alternatives